Trimble, Missouri
Current Conditions -  °F | °C
As of 5:53 AM on Monday 26 Jan 2015 (Local Time) from KMCI Reporting Station
Clear Clear  
Wind Chill: 19°   Ceiling: Unl
Heat Index: 25°   Visibility: 8mi
Dew Point: 23°   Wind: 5mph
Humidity: 92%   Direction: 190°S
Pressure: 30.01"   Gusts: NA
Location:  39.47°N, 94.56°W
Report Text: KMCI 261153Z 19004KT 8SM CLR M04/M05 A3001 RMK AO2 SLP169 70001 I1000 I6001 T10391050 10000 21050 58023
Loading
Personal Weather Stations






























Interactive Weather Map New forecast layout! Learn more

10-Day Weather Forecast

Advertisements
Track Severe Weather on mobile